Forbes Field
KFOE : rendu visible

Aérodrome :











RETROUVEZ-NOUS SUR...

 
LOGIN :

S'inscrire | Disclaimer

   EN    FR    IT 

 









Légende :    VFR   VFR Marginal   IFR   IFR Intensif   IFR Très Intensif
Visi : 
Plafond : 
>= 8 km
>= 3000ft
5 à 8 km
1000 à 3000 ft
1500m à 5 km
500 à 1000 ft
800 à 1500m
200 à 500 ft
< 800m
< 200 ft
Symboles :   Orages  Brouillard  Fortes neiges  Fortes précipitations  Vent > 20 kt






- Altitude de l'aérodrome : 1078 ft
- Code IATA : FOE


KFOE - Forbes Field

DERNIER METAR :
  • 311653Z 12011G18KT 10SM CLR 25/14 A3022 RMK AO2 SLP227 T02500144

METARs EXPIRÉS :
  • 311553Z 13010KT 10SM CLR 23/14 A3024 RMK AO2 SLP231 T02330144
  • 311453Z AUTO 13008KT 10SM SCT120 21/14 A3024 RMK AO2 SLP235 T02110139 50005

TAF KFOE
Valide du 31 à 12h jusqu'au 01 à 12h UTC


311120Z 3112/0112 11008KT P6SM VCSH BKN080
FM311300 14009KT P6SM BKN100
FM311500 15014G22KT P6SM SCT150
FM010000 16011KT P6SM FEW250
FIR KZKC / Amérique du Nord



MET'MAP, la Météo Aéronautique d'un coup d'oeil ! - Copyright ORBIFLY Décembre 2007 - Disclaimer

ORBIFLY MET'MAP TEAM :

Programmation & Développement : Alexandra Zaïnal
Sur une idée originale de : Baudouin d'Aumeries
Assistance à la programmation : Marc-Olivier Méhu
Soutien technique & logistique : Manuel Goepfert

Contact : metmap@orbifly.com




SOURCES & CREDITS :

   NOAA       Earth
Advisory